F70

French Valley Airport

Murrieta/Temecula, California, USA
METAR KF70 192155Z AUTO 32003KT 10SM CLR 24/M05 A3000 RMK AO1
Observed Flight Rules
Nov-19 @ 21:55 UTC (21 minutes ago) Visual Flight Rules
Wind Visibility Clouds
320° at 3 knots 10 miles
  • Clear skies
Temperatures Readings
Current 24°C / 75°F
Dewpoint -5°C / 23°F
Humidity 14%
Altimeter 30" Hg
Pressure 1016 hPa
Elevation 412
METAR KF70 192155Z AUTO 32003KT 10SM CLR 24/M05 A3000 RMK AO1
Observed Flight Rules
Nov-19 @ 21:55 UTC
(21 minutes ago)
VFR
Wind Visibility
320° at 3 knots 10 miles
Clouds
  • Clear skies
Temperature Dewpoint
24°C / 75°F -5°C / 23°F
Humidity Altimeter Pressure
14% 30" Hg 1016 hPa